Time;durP1;ratioP1;P1;durP2;ratioP2;P2;SDS_P1;SDS_P2;PMS_P1;PMS_P2;Temp;Humidity;BMP_temperature;BMP_pressure;BME280_temperature;BME280_humidity;BME280_pressure;Samples;Min_cycle;Max_cycle;Signal;HPM_P1;HPM_P2
2022/10/19 00:00:28;;;;;;;9.38;4.47;;;;;;;14.08;100.00;97205.06;5038025;28;20244;-71
2022/10/19 00:02:54;;;;;;;8.52;5.15;;;;;;;13.98;100.00;97196.47;5036690;28;20272;-71
2022/10/19 00:05:21;;;;;;;12.25;4.88;;;;;;;13.99;100.00;97196.31;5038528;28;20221;-71
2022/10/19 00:07:47;;;;;;;12.73;4.93;;;;;;;13.94;100.00;97202.28;5037960;28;20662;-71
2022/10/19 00:10:14;;;;;;;10.57;4.93;;;;;;;13.84;100.00;97202.50;5037446;28;20206;-71
2022/10/19 00:12:42;;;;;;;7.97;4.60;;;;;;;13.94;100.00;97210.22;5036970;28;20232;-71
2022/10/19 00:15:09;;;;;;;8.63;4.38;;;;;;;13.86;100.00;97211.13;5037925;28;20204;-71
2022/10/19 00:17:36;;;;;;;5.70;3.90;;;;;;;13.70;100.00;97205.91;5037210;28;20208;-71
2022/10/19 00:20:02;;;;;;;5.90;3.55;;;;;;;13.64;100.00;97203.94;5037688;28;20701;-72
2022/10/19 00:22:29;;;;;;;6.75;3.95;;;;;;;13.54;100.00;97200.69;5036390;28;20217;-71
2022/10/19 00:24:56;;;;;;;6.65;4.28;;;;;;;13.49;100.00;97203.00;5037436;28;20680;-73
2022/10/19 00:27:23;;;;;;;6.38;3.72;;;;;;;13.45;100.00;97206.16;5037492;28;20681;-72
2022/10/19 00:29:50;;;;;;;7.15;3.92;;;;;;;13.43;100.00;97205.53;5037851;28;20231;-71
2022/10/19 00:32:17;;;;;;;6.78;3.70;;;;;;;13.33;100.00;97206.69;5036659;28;20217;-71
2022/10/19 00:34:43;;;;;;;6.65;3.50;;;;;;;13.18;100.00;97198.63;5036927;28;20197;-71
2022/10/19 00:37:10;;;;;;;6.57;3.60;;;;;;;13.13;100.00;97206.25;5037653;28;20205;-71
2022/10/19 00:39:37;;;;;;;4.93;3.45;;;;;;;13.12;100.00;97206.44;5037466;28;20212;-71
2022/10/19 00:42:04;;;;;;;6.63;3.63;;;;;;;13.20;100.00;97203.75;5037082;28;20706;-71
2022/10/19 00:45:01;;;;;;;4.20;2.88;;;;;;;13.33;100.00;97201.41;5036408;28;20229;-71
2022/10/19 00:47:28;;;;;;;3.38;2.47;;;;;;;13.12;100.00;97206.44;5037365;28;20204;-71
2022/10/19 00:49:57;;;;;;;4.05;3.10;;;;;;;13.08;100.00;97207.78;5037017;28;20292;-71
2022/10/19 00:52:25;;;;;;;4.38;2.92;;;;;;;13.03;100.00;97207.44;5036217;28;20217;-71
2022/10/19 00:54:54;;;;;;;3.47;2.70;;;;;;;12.94;100.00;97211.09;5037413;28;20206;-71
2022/10/19 00:57:21;;;;;;;6.28;3.50;;;;;;;12.76;100.00;97207.78;5037239;28;20205;-71
2022/10/19 00:59:48;;;;;;;6.47;3.40;;;;;;;12.84;100.00;97215.72;5037261;28;20208;-71
2022/10/19 01:02:16;;;;;;;16.95;3.60;;;;;;;12.86;100.00;97213.78;5036927;28;20217;-71
2022/10/19 01:04:47;;;;;;;8.18;3.65;;;;;;;12.86;100.00;97217.22;5036395;28;20228;-71
2022/10/19 01:07:14;;;;;;;6.45;3.80;;;;;;;12.75;100.00;97215.91;5037312;28;20828;-71
2022/10/19 01:09:41;;;;;;;24.38;4.00;;;;;;;12.68;100.00;97215.72;5037784;28;20244;-71
2022/10/19 01:12:17;;;;;;;9.57;3.70;;;;;;;12.79;100.00;97203.00;5036536;28;20217;-70
2022/10/19 01:14:57;;;;;;;6.20;3.47;;;;;;;12.82;100.00;97201.84;5036413;28;20216;-70
2022/10/19 01:17:37;;;;;;;13.70;4.07;;;;;;;12.81;100.00;97202.81;5036690;28;20208;-70
2022/10/19 01:20:37;;;;;;;9.13;3.88;;;;;;;12.79;100.00;97199.50;5036909;28;20200;-71
2022/10/19 01:23:30;;;;;;;23.27;4.57;;;;;;;12.90;100.00;97188.63;5035634;28;20599;-71
2022/10/19 01:26:13;;;;;;;15.43;4.40;;;;;;;12.84;100.00;97186.59;5036736;28;20274;-71
2022/10/19 01:28:53;;;;;;;6.40;4.00;;;;;;;12.83;100.00;97188.44;5036536;28;20216;-71
2022/10/19 01:31:27;;;;;;;10.18;4.47;;;;;;;12.89;100.00;97186.97;5036505;28;20629;-71
2022/10/19 01:34:03;;;;;;;7.22;4.18;;;;;;;13.05;100.00;97189.59;5036105;28;20585;-71
2022/10/19 01:36:37;;;;;;;13.35;5.18;;;;;;;13.08;100.00;97192.72;5036458;28;20684;-71
2022/10/19 01:39:10;;;;;;;15.82;6.15;;;;;;;13.21;100.00;97194.84;5036267;28;20211;-72
2022/10/19 01:41:45;;;;;;;18.48;7.40;;;;;;;13.30;100.00;97194.66;5036802;28;20225;-71
2022/10/19 01:44:16;;;;;;;18.23;7.30;;;;;;;13.28;100.00;97193.16;5035740;28;20200;-71
2022/10/19 01:46:50;;;;;;;11.77;6.30;;;;;;;13.38;100.00;97186.69;5036406;28;20201;-71
2022/10/19 01:49:22;;;;;;;11.18;6.63;;;;;;;13.41;100.00;97184.50;5036656;28;20200;-71
2022/10/19 01:51:51;;;;;;;21.52;7.80;;;;;;;13.42;100.00;97180.03;5036525;28;20259;-71
2022/10/19 01:54:21;;;;;;;24.85;8.25;;;;;;;13.50;100.00;97180.00;5035492;28;20201;-71
2022/10/19 01:56:49;;;;;;;17.35;8.07;;;;;;;13.59;100.00;97177.16;5036513;28;20208;-71
2022/10/19 01:59:18;;;;;;;27.05;7.65;;;;;;;13.70;100.00;97179.41;5035059;28;20237;-71
2022/10/19 02:01:49;;;;;;;20.63;8.32;;;;;;;13.80;100.00;97177.38;5036043;28;20722;-71
2022/10/19 02:04:19;;;;;;;34.05;9.13;;;;;;;13.77;100.00;97169.78;5035866;28;20573;-71
2022/10/19 02:06:45;;;;;;;30.02;9.15;;;;;;;13.80;100.00;97174.72;5036898;28;20229;-74
2022/10/19 02:09:16;;;;;;;26.88;9.57;;;;;;;13.88;100.00;97177.31;5040137;28;20209;-71
2022/10/19 02:11:45;;;;;;;32.10;9.50;;;;;;;14.00;100.00;97178.56;5040514;28;20315;-71
2022/10/19 02:14:15;;;;;;;30.67;10.15;;;;;;;14.01;100.00;97170.47;5040342;28;20201;-71
2022/10/19 02:16:47;;;;;;;37.45;9.57;;;;;;;14.08;100.00;97173.25;5040031;28;20945;-72
2022/10/19 02:19:15;;;;;;;30.30;10.00;;;;;;;14.09;100.00;97172.25;5039498;28;20201;-71
2022/10/19 02:21:42;;;;;;;32.63;11.02;;;;;;;14.08;100.00;97173.25;5040364;28;20221;-71
2022/10/19 02:24:08;;;;;;;38.05;10.50;;;;;;;14.07;100.00;97171.56;5039516;28;20617;-71
2022/10/19 02:26:35;;;;;;;28.08;10.15;;;;;;;14.14;100.00;97167.25;5039597;28;20217;-71
2022/10/19 02:29:02;;;;;;;29.67;10.75;;;;;;;14.09;100.00;97165.13;5039860;28;20558;-72
2022/10/19 02:31:28;;;;;;;31.13;11.40;;;;;;;14.19;100.00;97164.88;5040354;28;20224;-71
2022/10/19 02:33:56;;;;;;;38.38;11.98;;;;;;;14.23;100.00;97167.03;5038590;28;20201;-71
2022/10/19 02:36:23;;;;;;;41.83;13.10;;;;;;;14.25;100.00;97158.88;5039853;28;20208;-71
2022/10/19 02:38:49;;;;;;;49.08;12.68;;;;;;;14.29;100.00;97171.59;5040045;28;20330;-71
2022/10/19 02:41:18;;;;;;;41.40;13.40;;;;;;;14.41;100.00;97169.34;5039285;28;20206;-71
2022/10/19 02:43:49;;;;;;;47.22;12.05;;;;;;;14.40;100.00;97162.41;5038489;28;20201;-71
2022/10/19 02:46:20;;;;;;;37.65;12.18;;;;;;;14.41;100.00;97158.75;5038447;28;20221;-71
2022/10/19 02:48:48;;;;;;;44.20;12.88;;;;;;;14.40;100.00;97149.97;5038872;28;20217;-71
2022/10/19 02:51:30;;;;;;;42.30;12.60;;;;;;;14.58;100.00;97149.66;5038535;28;20197;-73
2022/10/19 02:53:57;;;;;;;41.72;12.35;;;;;;;14.48;100.00;97151.75;5038567;28;20834;-72
2022/10/19 02:56:23;;;;;;;45.22;13.90;;;;;;;14.48;100.00;97141.13;5039285;28;20661;-72
2022/10/19 02:58:50;;;;;;;42.47;12.55;;;;;;;14.42;100.00;97150.63;5039095;28;20209;-73
2022/10/19 03:01:17;;;;;;;41.70;12.13;;;;;;;14.45;100.00;97144.16;5039183;28;20205;-71
2022/10/19 03:03:43;;;;;;;40.17;11.95;;;;;;;14.50;100.00;97149.72;5038331;28;20717;-73
2022/10/19 03:06:10;;;;;;;40.88;12.75;;;;;;;14.50;100.00;97147.06;5039087;28;20232;-72
2022/10/19 03:08:37;;;;;;;47.50;13.35;;;;;;;14.62;100.00;97140.34;5039299;28;20197;-73
2022/10/19 03:11:04;;;;;;;39.15;12.60;;;;;;;14.58;100.00;97145.19;5039264;28;20212;-71
2022/10/19 03:13:31;;;;;;;42.50;12.07;;;;;;;14.63;100.00;97139.34;5038208;28;20205;-70
2022/10/19 03:15:57;;;;;;;34.65;12.00;;;;;;;14.59;100.00;97141.53;5038804;28;20204;-73
2022/10/19 03:18:24;;;;;;;37.47;11.40;;;;;;;14.63;100.00;97135.66;5037891;28;20223;-72
2022/10/19 03:20:50;;;;;;;45.33;12.15;;;;;;;14.62;100.00;97130.53;5038382;28;20205;-72
2022/10/19 03:23:17;;;;;;;41.05;12.02;;;;;;;14.64;100.00;97134.66;5038425;28;20232;-72
2022/10/19 03:25:45;;;;;;;42.85;12.77;;;;;;;14.75;100.00;97136.91;5039340;28;20232;-70
2022/10/19 03:28:11;;;;;;;42.85;13.70;;;;;;;14.66;100.00;97139.78;5038930;28;20212;-72
2022/10/19 03:30:37;;;;;;;47.47;12.95;;;;;;;14.69;100.00;97127.00;5038242;28;20201;-73
2022/10/19 03:33:04;;;;;;;44.75;13.32;;;;;;;14.68;100.00;97129.84;5037982;28;20905;-72
2022/10/19 03:35:30;;;;;;;43.88;13.82;;;;;;;14.73;100.00;97128.28;5039447;28;20189;-71
2022/10/19 03:37:57;;;;;;;44.15;13.27;;;;;;;14.70;100.00;97123.34;5039077;28;20912;-70
2022/10/19 03:40:23;;;;;;;46.58;14.30;;;;;;;14.68;100.00;97120.03;5038756;28;20205;-71
2022/10/19 03:42:51;;;;;;;43.03;13.55;;;;;;;14.74;100.00;97121.97;5037537;28;20228;-71
2022/10/19 03:45:19;;;;;;;42.40;13.45;;;;;;;14.66;100.00;97132.69;5038746;28;20598;-71
2022/10/19 03:47:49;;;;;;;41.13;12.23;;;;;;;14.79;100.00;97119.59;5038202;28;20213;-69
2022/10/19 03:50:15;;;;;;;38.03;11.80;;;;;;;14.73;100.00;97130.94;5039068;28;20204;-71
2022/10/19 03:52:42;;;;;;;46.97;12.35;;;;;;;14.73;100.00;97125.63;5037771;28;20229;-70
2022/10/19 03:55:09;;;;;;;46.22;13.18;;;;;;;14.81;100.00;97132.69;5037898;28;20208;-69
2022/10/19 03:57:36;;;;;;;39.22;12.27;;;;;;;14.79;100.00;97124.91;5038289;28;20201;-70
2022/10/19 04:00:04;;;;;;;37.55;12.40;;;;;;;14.87;100.00;97124.00;5037878;28;20205;-70
2022/10/19 04:02:31;;;;;;;31.52;11.27;;;;;;;14.79;100.00;97122.25;5037166;28;20228;-71
2022/10/19 04:04:57;;;;;;;39.80;12.05;;;;;;;14.76;100.00;97130.56;5037951;28;20237;-71
2022/10/19 04:07:24;;;;;;;36.45;12.05;;;;;;;14.80;100.00;97129.22;5038277;28;20232;-70
2022/10/19 04:09:50;;;;;;;38.65;11.82;;;;;;;14.81;100.00;97122.88;5037966;28;20708;-71
2022/10/19 04:12:17;;;;;;;42.67;13.45;;;;;;;14.79;100.00;97122.25;5037703;28;20225;-71
2022/10/19 04:14:43;;;;;;;40.10;11.52;;;;;;;14.71;100.00;97119.69;5037428;28;20201;-71
2022/10/19 04:17:11;;;;;;;45.30;13.05;;;;;;;14.83;100.00;97118.22;5038174;28;20197;-70
2022/10/19 04:19:38;;;;;;;44.15;12.18;;;;;;;14.77;100.00;97124.25;5037696;28;20207;-71
2022/10/19 04:22:04;;;;;;;36.90;12.18;;;;;;;14.80;100.00;97120.41;5037412;28;20225;-70
2022/10/19 04:24:31;;;;;;;41.45;11.95;;;;;;;14.77;100.00;97126.91;5037031;28;20670;-70
2022/10/19 04:26:57;;;;;;;38.70;12.30;;;;;;;14.80;100.00;97121.25;5037742;28;20229;-70
2022/10/19 04:29:26;;;;;;;35.88;12.27;;;;;;;14.88;100.00;97115.88;5037037;28;20204;-70
2022/10/19 04:31:53;;;;;;;39.35;12.50;;;;;;;14.80;100.00;97118.59;5037445;28;20232;-71
2022/10/19 04:34:20;;;;;;;40.17;12.10;;;;;;;14.90;100.00;97113.84;5037383;28;20197;-70
2022/10/19 04:36:47;;;;;;;43.33;12.45;;;;;;;14.83;100.00;97118.22;5037261;28;20574;-70
2022/10/19 04:39:14;;;;;;;35.70;11.85;;;;;;;14.84;100.00;97119.88;5037771;28;20216;-70
2022/10/19 04:41:40;;;;;;;33.13;12.00;;;;;;;14.86;100.00;97123.16;5037414;28;20221;-70
2022/10/19 04:44:07;;;;;;;39.15;12.30;;;;;;;14.86;100.00;97112.56;5036750;28;20204;-71
2022/10/19 04:46:34;;;;;;;43.70;12.15;;;;;;;14.79;100.00;97113.47;5037081;28;20232;-71
2022/10/19 04:49:03;;;;;;;39.88;12.68;;;;;;;14.81;100.00;97114.91;5038034;28;20216;-71
2022/10/19 04:51:31;;;;;;;37.50;12.40;;;;;;;14.92;100.00;97106.53;5037214;28;20217;-71
2022/10/19 04:53:57;;;;;;;38.55;12.80;;;;;;;14.87;100.00;97108.91;5036298;28;20674;-70
2022/10/19 04:56:26;;;;;;;36.53;11.23;;;;;;;14.95;100.00;97103.50;5037133;28;20197;-70
2022/10/19 04:58:56;;;;;;;38.10;12.75;;;;;;;14.97;100.00;97096.19;5037256;28;20586;-70
2022/10/19 05:01:25;;;;;;;39.92;12.75;;;;;;;14.93;100.00;97092.25;5036867;28;20286;-70
2022/10/19 05:03:54;;;;;;;37.83;12.13;;;;;;;14.96;100.00;97094.53;5036369;28;20231;-70
2022/10/19 05:06:21;;;;;;;42.72;12.15;;;;;;;14.91;100.00;97094.25;5036921;28;20230;-70
2022/10/19 05:08:49;;;;;;;34.25;11.77;;;;;;;14.99;100.00;97090.69;5036749;28;20201;-72
2022/10/19 05:11:17;;;;;;;43.63;12.90;;;;;;;14.98;100.00;97094.34;5037256;28;20197;-71
2022/10/19 05:13:44;;;;;;;40.88;13.05;;;;;;;14.87;100.00;97098.28;5036293;28;20206;-71
2022/10/19 05:16:13;;;;;;;41.20;12.80;;;;;;;14.91;100.00;97104.88;5036840;28;20201;-71
2022/10/19 05:18:40;;;;;;;40.47;12.93;;;;;;;14.87;100.00;97111.56;5037102;28;20205;-72
2022/10/19 05:21:08;;;;;;;39.15;12.63;;;;;;;14.78;100.00;97104.69;5035443;28;20673;-73
2022/10/19 05:23:35;;;;;;;42.03;12.98;;;;;;;14.84;100.00;97113.75;5035559;28;20205;-74
2022/10/19 05:26:04;;;;;;;44.15;12.88;;;;;;;14.94;100.00;97101.88;5036358;28;20228;-73
2022/10/19 05:28:31;;;;;;;41.97;12.32;;;;;;;14.90;100.00;97097.09;5037187;28;20212;-71
2022/10/19 05:31:05;;;;;;;38.25;11.80;;;;;;;15.01;100.00;97094.81;5036802;28;20212;-70
2022/10/19 05:33:32;;;;;;;45.17;13.00;;;;;;;14.89;100.00;97093.63;5035904;28;20602;-72
2022/10/19 05:35:58;;;;;;;38.25;12.77;;;;;;;14.83;100.00;97099.66;5036666;28;20209;-71
2022/10/19 05:38:25;;;;;;;43.13;13.48;;;;;;;14.84;100.00;97089.84;5036580;28;20556;-72
2022/10/19 05:40:51;;;;;;;43.55;13.73;;;;;;;14.86;100.00;97080.72;5036247;28;20209;-69
2022/10/19 05:43:19;;;;;;;43.08;12.77;;;;;;;14.92;100.00;97095.91;5039346;28;20927;-71
2022/10/19 05:45:46;;;;;;;41.13;13.32;;;;;;;14.85;100.00;97094.97;5040425;28;20201;-74
2022/10/19 05:48:12;;;;;;;36.95;13.32;;;;;;;14.87;100.00;97098.28;5040593;28;20216;-71
2022/10/19 05:50:39;;;;;;;40.10;12.10;;;;;;;14.82;100.00;97099.84;5040994;28;20215;-71
2022/10/19 05:53:05;;;;;;;42.70;13.45;;;;;;;14.77;100.00;97092.41;5039498;28;20217;-71
2022/10/19 05:55:34;;;;;;;40.38;14.05;;;;;;;14.93;100.00;97092.25;5040347;28;20205;-71
2022/10/19 05:58:00;;;;;;;42.05;12.75;;;;;;;14.86;100.00;97091.31;5040755;28;20200;-73
2022/10/19 06:00:28;;;;;;;38.38;13.63;;;;;;;14.93;100.00;97099.38;5041247;28;20197;-72
2022/10/19 06:02:55;;;;;;;42.58;14.07;;;;;;;14.90;100.00;97097.09;5039051;28;20239;-71
2022/10/19 06:05:21;;;;;;;46.75;14.13;;;;;;;14.86;100.00;97101.94;5040373;28;20546;-71
2022/10/19 06:07:48;;;;;;;43.22;13.27;;;;;;;14.82;100.00;97100.66;5040095;28;20240;-71
2022/10/19 06:10:14;;;;;;;47.17;14.25;;;;;;;14.87;100.00;97108.91;5040802;28;20216;-70
2022/10/19 06:12:41;;;;;;;43.92;14.80;;;;;;;14.84;100.00;97101.31;5039214;28;20713;-71
2022/10/19 06:15:08;;;;;;;43.35;13.77;;;;;;;14.93;100.00;97102.03;5039975;28;20197;-71
2022/10/19 06:17:36;;;;;;;44.88;14.25;;;;;;;14.99;100.00;97112.72;5039749;28;20204;-71
2022/10/19 06:20:03;;;;;;;44.72;14.40;;;;;;;14.93;100.00;97108.19;5040041;28;20212;-71
2022/10/19 06:22:29;;;;;;;41.53;13.25;;;;;;;14.87;100.00;97122.16;5039332;28;20303;-70
2022/10/19 06:24:56;;;;;;;43.00;14.82;;;;;;;14.85;100.00;97116.19;5039961;28;20217;-70
2022/10/19 06:27:22;;;;;;;42.42;15.38;;;;;;;14.93;100.00;97112.66;5040245;28;20258;-70
2022/10/19 06:29:49;;;;;;;43.15;14.52;;;;;;;14.91;100.00;97114.66;5040336;28;20232;-69
2022/10/19 06:32:15;;;;;;;46.15;14.55;;;;;;;14.93;100.00;97113.50;5039297;28;20221;-71
2022/10/19 06:34:43;;;;;;;39.88;13.98;;;;;;;15.03;100.00;97103.44;5039182;28;20216;-70
2022/10/19 06:37:09;;;;;;;43.22;14.90;;;;;;;14.94;100.00;97120.44;5039260;28;20207;-71
2022/10/19 06:39:36;;;;;;;42.30;13.70;;;;;;;14.97;100.00;97111.28;5039540;28;21113;-71
2022/10/19 06:42:02;;;;;;;43.50;14.40;;;;;;;15.02;100.00;97109.75;5039733;28;20598;-71
2022/10/19 06:44:29;;;;;;;42.00;14.35;;;;;;;15.02;100.00;97115.03;5038872;28;20198;-70
2022/10/19 06:46:55;;;;;;;40.72;14.25;;;;;;;15.09;100.00;97120.44;5039751;28;20220;-70
2022/10/19 06:49:22;;;;;;;44.33;15.55;;;;;;;14.99;100.00;97128.66;5039281;28;20224;-70
2022/10/19 06:51:50;;;;;;;42.35;14.18;;;;;;;15.06;100.00;97124.28;5039172;28;20221;-70
2022/10/19 06:54:16;;;;;;;48.28;14.50;;;;;;;15.04;100.00;97134.25;5038561;28;20202;-70
2022/10/19 06:56:43;;;;;;;36.65;13.23;;;;;;;15.11;100.00;97131.69;5038776;28;20216;-70
2022/10/19 06:59:11;;;;;;;40.55;13.57;;;;;;;15.09;100.00;97131.06;5038463;28;20201;-71
2022/10/19 07:01:37;;;;;;;36.55;13.63;;;;;;;15.10;100.00;97128.22;5039218;28;20332;-71
2022/10/19 07:04:04;;;;;;;39.35;13.32;;;;;;;15.10;100.00;97125.56;5039298;28;20201;-71
2022/10/19 07:06:31;;;;;;;42.63;13.40;;;;;;;15.13;100.00;97130.50;5038641;28;20605;-70
2022/10/19 07:08:58;;;;;;;34.38;13.25;;;;;;;15.25;100.00;97129.88;5039012;28;20205;-69
2022/10/19 07:11:25;;;;;;;36.75;12.48;;;;;;;15.16;100.00;97130.16;5039200;28;20247;-69
2022/10/19 07:13:52;;;;;;;36.67;12.63;;;;;;;15.25;100.00;97129.88;5038562;28;20205;-68
2022/10/19 07:16:19;;;;;;;33.22;12.77;;;;;;;15.27;100.00;97137.66;5038865;28;20208;-69
2022/10/19 07:18:45;;;;;;;34.88;12.25;;;;;;;15.20;100.00;97131.44;5039062;28;20213;-71
2022/10/19 07:21:13;;;;;;;32.35;12.82;;;;;;;15.25;100.00;97126.44;5038813;28;20209;-69
2022/10/19 07:23:42;;;;;;;36.90;13.60;;;;;;;15.30;100.00;97132.00;5038311;28;21064;-70
2022/10/19 07:26:13;;;;;;;28.92;11.93;;;;;;;15.29;100.00;97136.47;5038332;28;20205;-71
2022/10/19 07:28:41;;;;;;;24.05;10.93;;;;;;;15.27;100.00;97138.50;5038920;28;20669;-70
2022/10/19 07:31:09;;;;;;;29.83;12.63;;;;;;;15.33;100.00;97137.75;5038940;28;20208;-68
2022/10/19 07:33:36;;;;;;;29.02;11.82;;;;;;;15.31;100.00;97138.94;5037781;28;20208;-69
2022/10/19 07:36:04;;;;;;;22.73;10.02;;;;;;;15.38;100.00;97134.56;5039117;28;20208;-71
2022/10/19 07:38:32;;;;;;;22.40;9.82;;;;;;;15.38;100.00;97130.06;5038740;28;20203;-71
2022/10/19 07:41:03;;;;;;;18.27;8.30;;;;;;;15.46;100.00;97131.81;5038322;28;20208;-71
2022/10/19 07:43:31;;;;;;;19.45;9.27;;;;;;;15.41;100.00;97126.22;5037744;28;20209;-71
2022/10/19 07:45:58;;;;;;;19.50;8.68;;;;;;;15.30;100.00;97124.03;5037150;28;20204;-71
2022/10/19 07:48:25;;;;;;;19.30;8.52;;;;;;;15.39;100.00;97120.28;5037139;28;20224;-71
2022/10/19 07:50:51;;;;;;;14.90;7.68;;;;;;;15.21;100.00;97122.50;5037630;28;20244;-71
2022/10/19 07:53:18;;;;;;;16.25;8.27;;;;;;;15.32;100.00;97119.34;5036675;28;20229;-71
2022/10/19 07:55:44;;;;;;;21.20;8.80;;;;;;;15.32;100.00;97122.84;5037309;28;20213;-71
2022/10/19 07:58:11;;;;;;;17.85;8.75;;;;;;;15.38;100.00;97118.63;5038599;28;20213;-71
2022/10/19 08:00:39;;;;;;;18.38;8.60;;;;;;;15.50;100.00;97117.97;5038116;28;20209;-71
2022/10/19 08:03:05;;;;;;;16.73;8.48;;;;;;;15.48;100.00;97121.81;5037319;28;20236;-71
2022/10/19 08:05:32;;;;;;;15.85;7.85;;;;;;;15.55;100.00;97128.03;5036928;28;20215;-71
2022/10/19 08:07:59;;;;;;;20.15;8.95;;;;;;;15.51;100.00;97129.41;5038081;28;20221;-71
2022/10/19 08:10:25;;;;;;;16.85;8.25;;;;;;;15.60;100.00;97133.59;5038279;28;20220;-71
2022/10/19 08:12:52;;;;;;;21.98;8.95;;;;;;;15.59;100.00;97137.28;5037017;28;20221;-71
2022/10/19 08:15:18;;;;;;;14.27;7.70;;;;;;;15.62;100.00;97129.75;5037941;28;20201;-71
2022/10/19 08:17:46;;;;;;;13.65;6.80;;;;;;;15.81;100.00;97130.97;5037872;28;20220;-71
2022/10/19 08:20:13;;;;;;;13.82;7.03;;;;;;;15.75;100.00;97131.75;5037369;28;20209;-71
2022/10/19 08:22:40;;;;;;;14.15;6.55;;;;;;;15.77;100.00;97130.56;5036725;28;20225;-71
2022/10/19 08:25:07;;;;;;;12.40;6.40;;;;;;;15.80;100.00;97129.38;5039026;28;20205;-71
2022/10/19 08:27:34;;;;;;;11.30;6.47;;;;;;;15.82;100.00;97133.44;5037650;28;20244;-71
2022/10/19 08:30:00;;;;;;;13.40;6.65;;;;;;;15.85;100.00;97127.78;5037160;28;20198;-71
2022/10/19 08:32:27;;;;;;;12.77;6.97;;;;;;;15.87;100.00;97139.88;5037220;28;20228;-71
2022/10/19 08:34:54;;;;;;;13.52;6.57;;;;;;;15.97;100.00;97132.44;5037539;28;20205;-71
2022/10/19 08:37:21;;;;;;;15.40;6.85;;;;;;;15.91;100.00;97129.66;5037350;28;20217;-71
2022/10/19 08:39:47;;;;;;;11.13;5.93;;;;;;;15.92;100.00;97128.66;5037804;28;20205;-71
2022/10/19 08:42:18;;;;;;;9.80;5.10;;;;;;;15.99;100.00;97125.06;5036845;28;20232;-69
2022/10/19 08:44:59;;;;;;;13.75;6.30;;;;;;;16.03;100.00;97130.84;5037205;28;20205;-69
2022/10/19 08:47:38;;;;;;;12.23;6.22;;;;;;;15.97;100.00;97128.91;5037491;28;20350;-70
2022/10/19 08:50:17;;;;;;;14.52;6.22;;;;;;;16.02;100.00;97130.00;5037716;28;20216;-69
2022/10/19 08:52:48;;;;;;;13.18;6.40;;;;;;;16.07;100.00;97132.91;5036234;28;20225;-70
2022/10/19 08:55:22;;;;;;;12.05;6.25;;;;;;;16.09;100.00;97130.91;5037090;28;21309;-69
2022/10/19 08:57:54;;;;;;;14.63;6.15;;;;;;;16.19;100.00;97131.41;5037177;28;20204;-69
2022/10/19 09:00:33;;;;;;;10.52;5.75;;;;;;;16.17;100.00;97128.09;5036958;28;20724;-71
2022/10/19 09:03:11;;;;;;;17.05;7.03;;;;;;;16.24;100.00;97118.38;5035819;28;20270;-71
2022/10/19 09:05:46;;;;;;;12.20;6.32;;;;;;;16.28;100.00;97130.31;5036844;28;20205;-69
2022/10/19 09:08:13;;;;;;;12.45;6.25;;;;;;;16.25;100.00;97119.19;5036995;28;20231;-70
2022/10/19 09:10:42;;;;;;;12.98;6.03;;;;;;;16.06;100.00;97120.66;5036509;28;20205;-71
2022/10/19 09:13:16;;;;;;;12.73;5.90;;;;;;;16.22;100.00;97128.38;5035824;28;21077;-71
2022/10/19 09:15:45;;;;;;;11.90;5.85;;;;;;;16.19;100.00;97120.78;5037272;28;20208;-69
2022/10/19 09:18:18;;;;;;;10.38;5.80;;;;;;;16.21;100.00;97124.06;5036498;28;20644;-71
2022/10/19 09:20:48;;;;;;;11.00;5.80;;;;;;;16.26;100.00;97126.19;5036875;28;21284;-69
2022/10/19 09:23:21;;;;;;;13.50;6.25;;;;;;;16.34;100.00;97126.88;5036482;28;20221;-71
2022/10/19 09:25:50;;;;;;;11.18;5.63;;;;;;;16.24;100.00;97123.69;5036321;28;20205;-71
2022/10/19 09:28:31;;;;;;;10.85;5.97;;;;;;;16.28;100.00;97125.00;5036278;28;20217;-71
2022/10/19 09:30:59;;;;;;;11.05;5.97;;;;;;;16.31;100.00;97124.59;5036325;28;20677;-71
2022/10/19 09:33:30;;;;;;;11.98;6.03;;;;;;;16.33;100.00;97119.94;5035384;28;20713;-71
2022/10/19 09:36:00;;;;;;;8.60;4.65;;;;;;;16.31;100.00;97121.13;5036512;28;20212;-71
2022/10/19 09:38:28;;;;;;;9.38;5.43;;;;;;;16.21;100.00;97124.06;5037105;28;20197;-71
2022/10/19 09:40:57;;;;;;;9.38;5.93;;;;;;;16.41;100.00;97132.25;5036028;28;20685;-71
2022/10/19 09:43:24;;;;;;;13.38;5.85;;;;;;;16.31;100.00;97131.78;5034758;28;20224;-71
2022/10/19 09:45:53;;;;;;;9.02;5.22;;;;;;;16.27;100.00;97115.34;5036243;28;20952;-71
2022/10/19 09:48:28;;;;;;;11.85;5.85;;;;;;;16.51;100.00;97125.59;5035894;28;20236;-71
2022/10/19 09:50:58;;;;;;;11.75;5.72;;;;;;;16.43;100.00;97123.06;5035943;28;20215;-71
2022/10/19 09:53:26;;;;;;;9.52;5.32;;;;;;;16.40;100.00;97119.97;5035429;28;20771;-71
2022/10/19 09:55:59;;;;;;;10.45;5.10;;;;;;;16.47;100.00;97132.34;5028274;28;20258;-71
2022/10/19 09:58:27;;;;;;;11.98;5.40;;;;;;;16.54;100.00;97119.91;5035898;28;20209;-71
2022/10/19 10:00:56;;;;;;;8.98;5.15;;;;;;;16.56;100.00;97123.19;5035940;28;20205;-71
2022/10/19 10:03:29;;;;;;;10.38;5.45;;;;;;;16.70;100.00;97122.25;5035377;28;20701;-71
2022/10/19 10:06:02;;;;;;;9.57;5.15;;;;;;;16.62;100.00;97119.75;5036238;28;20208;-71
2022/10/19 10:08:31;;;;;;;12.30;6.15;;;;;;;16.60;100.00;97108.50;5035949;28;21333;-71
2022/10/19 10:11:06;;;;;;;10.13;5.70;;;;;;;16.64;100.00;97109.75;5036388;28;20202;-71
2022/10/19 10:13:36;;;;;;;9.80;5.72;;;;;;;16.66;100.00;97105.88;5034847;28;20193;-71
2022/10/19 10:16:06;;;;;;;10.90;5.90;;;;;;;16.57;100.00;97108.84;5034923;28;20205;-74
2022/10/19 10:18:38;;;;;;;12.48;6.45;;;;;;;16.61;100.00;97107.44;5035312;28;20198;-72
2022/10/19 10:21:14;;;;;;;12.80;6.53;;;;;;;16.63;100.00;97110.75;5035565;28;20674;-72
2022/10/19 10:23:41;;;;;;;12.02;6.10;;;;;;;16.63;100.00;97116.06;5034395;28;20201;-71
2022/10/19 10:26:17;;;;;;;11.77;5.90;;;;;;;16.73;100.00;97114.72;5034357;28;20202;-73
2022/10/19 10:28:48;;;;;;;10.88;5.70;;;;;;;16.76;100.00;97117.00;5036870;28;20324;-73
2022/10/19 10:31:19;;;;;;;13.55;6.10;;;;;;;16.70;100.00;97106.28;5039044;28;20197;-73
2022/10/19 10:33:53;;;;;;;15.23;6.13;;;;;;;16.92;100.00;97106.06;5037964;28;20208;-73
2022/10/19 10:36:24;;;;;;;10.50;6.00;;;;;;;16.80;100.00;97109.44;5039782;28;20557;-71
2022/10/19 10:38:53;;;;;;;12.38;5.82;;;;;;;16.84;100.00;97106.22;5039521;28;20204;-72
2022/10/19 10:41:22;;;;;;;10.18;5.30;;;;;;;16.84;100.00;97108.03;5038826;28;20216;-73
2022/10/19 10:43:53;;;;;;;9.70;5.22;;;;;;;16.81;100.00;97105.75;5039245;28;20201;-72
2022/10/19 10:46:24;;;;;;;7.82;4.78;;;;;;;16.93;100.00;97093.56;5039560;28;20208;-71
2022/10/19 10:48:56;;;;;;;10.95;4.55;;;;;;;16.99;100.00;97095.44;5039234;28;20229;-72
2022/10/19 10:51:32;;;;;;;8.40;4.78;;;;;;;16.95;100.00;97100.31;5039035;28;20225;-71
2022/10/19 10:54:16;;;;;;;8.30;4.70;;;;;;;16.91;100.00;97100.94;5039144;28;20657;-71
2022/10/19 10:56:44;;;;;;;7.35;4.32;;;;;;;16.79;100.00;97097.13;5035013;28;20684;-72
2022/10/19 10:59:13;;;;;;;7.40;4.47;;;;;;;16.54;100.00;97087.97;5038905;28;20200;-71
2022/10/19 11:01:41;;;;;;;8.13;4.38;;;;;;;16.57;100.00;97080.44;5039604;28;20228;-71
2022/10/19 11:04:14;;;;;;;9.38;4.45;;;;;;;16.50;100.00;97078.72;5038324;28;20205;-71
2022/10/19 11:06:47;;;;;;;8.73;4.93;;;;;;;16.71;100.00;97074.19;5038642;28;20201;-71
2022/10/19 11:09:18;;;;;;;9.80;4.65;;;;;;;16.66;100.00;97065.13;5039351;28;20209;-71
2022/10/19 11:11:47;;;;;;;10.23;5.05;;;;;;;16.61;100.00;97067.53;5039023;28;20239;-71
2022/10/19 11:14:30;;;;;;;8.65;4.90;;;;;;;16.79;100.00;97059.88;5038809;28;20212;-71
2022/10/19 11:17:00;;;;;;;11.77;5.10;;;;;;;16.63;100.00;97061.00;5039282;28;20202;-71
2022/10/19 11:19:36;;;;;;;11.10;4.85;;;;;;;16.79;100.00;97065.19;5038852;28;20201;-71
2022/10/19 11:22:15;;;;;;;10.85;4.97;;;;;;;16.83;100.00;97051.31;5038297;28;20221;-71